Time;durP1;ratioP1;P1;durP2;ratioP2;P2;SDS_P1;SDS_P2;PMS_P1;PMS_P2;Temp;Humidity;BMP_temperature;BMP_pressure;BME280_temperature;BME280_humidity;BME280_pressure;Samples;Min_cycle;Max_cycle;Signal;HPM_P1;HPM_P2
2022/06/03 00:00:03;;;;;;;7.65;5.15;;;;;;;13.68;80.66;102159.25;6267899;22;20416;-57
2022/06/03 00:02:47;;;;;;;7.40;4.43;;;;;;;13.67;80.44;102150.47;6234953;22;20146;-57
2022/06/03 00:05:31;;;;;;;8.75;4.88;;;;;;;13.67;80.41;102157.53;6267211;22;20495;-56
2022/06/03 00:08:20;;;;;;;7.43;4.53;;;;;;;13.68;79.93;102159.25;6240458;22;20011;-58
2022/06/03 00:11:20;;;;;;;6.32;4.82;;;;;;;13.67;80.04;102160.19;6242439;22;20007;-57
2022/06/03 00:13:48;;;;;;;7.25;4.43;;;;;;;13.62;79.88;102152.34;6269817;22;20007;-58
2022/06/03 00:16:43;;;;;;;5.85;4.43;;;;;;;13.63;79.46;102149.66;6269257;22;20015;-59
2022/06/03 00:19:29;;;;;;;8.40;4.20;;;;;;;13.68;78.90;102156.63;6268581;22;20031;-57
2022/06/03 00:22:12;;;;;;;6.07;3.92;;;;;;;13.71;78.40;102148.59;6242462;22;20069;-55
2022/06/03 00:25:15;;;;;;;5.65;4.00;;;;;;;13.72;78.21;102148.56;6268989;22;20041;-58
2022/06/03 00:27:49;;;;;;;6.60;4.07;;;;;;;13.69;77.96;102151.28;6269080;22;20004;-58
2022/06/03 00:30:23;;;;;;;7.03;4.50;;;;;;;13.73;77.79;102147.63;6268957;22;20741;-58
2022/06/03 00:33:01;;;;;;;10.07;3.60;;;;;;;13.83;77.25;102148.28;6242108;22;20034;-57
2022/06/03 00:35:39;;;;;;;9.60;3.57;;;;;;;13.82;76.79;102143.00;6269747;22;20078;-59
2022/06/03 00:38:38;;;;;;;4.53;3.63;;;;;;;13.80;76.68;102140.41;6267526;22;20254;-58
2022/06/03 00:41:25;;;;;;;5.47;3.40;;;;;;;13.73;76.16;102142.34;6251327;22;20087;-57
2022/06/03 00:44:09;;;;;;;5.45;3.15;;;;;;;13.77;76.29;102145.78;6268436;22;20508;-61
2022/06/03 00:46:53;;;;;;;4.82;3.20;;;;;;;13.76;75.72;102138.75;6269183;22;20082;-58
2022/06/03 00:49:49;;;;;;;5.05;3.85;;;;;;;13.83;75.56;102140.31;6268855;22;20074;-58
2022/06/03 00:52:33;;;;;;;6.38;3.60;;;;;;;13.77;75.39;102135.19;6241751;22;20034;-58
2022/06/03 00:55:27;;;;;;;4.90;3.20;;;;;;;13.81;75.45;102138.63;6268098;22;20031;-56
2022/06/03 00:58:18;;;;;;;4.03;3.47;;;;;;;13.75;74.91;102131.69;6242304;22;20101;-59
2022/06/03 01:01:15;;;;;;;14.93;4.00;;;;;;;13.80;75.01;102135.09;6268964;22;20011;-58
2022/06/03 01:03:50;;;;;;;5.90;3.25;;;;;;;13.79;75.00;102130.72;6255497;22;20057;-57
2022/06/03 01:06:33;;;;;;;4.78;3.03;;;;;;;13.75;74.70;102127.28;6268645;22;20429;-57
2022/06/03 01:08:58;;;;;;;4.43;3.42;;;;;;;13.77;74.45;102130.78;6268758;22;20019;-58
2022/06/03 01:11:54;;;;;;;5.40;3.25;;;;;;;13.72;74.54;102126.47;6268122;22;20035;-57
2022/06/03 01:14:30;;;;;;;5.72;3.10;;;;;;;13.79;74.22;102132.50;6270143;22;20015;-56
2022/06/03 01:17:02;;;;;;;5.60;3.47;;;;;;;13.71;74.48;102127.41;6242490;22;20073;-57
2022/06/03 01:19:42;;;;;;;5.13;2.85;;;;;;;13.80;74.03;102129.81;6243282;22;20086;-56
2022/06/03 01:22:39;;;;;;;4.40;3.00;;;;;;;13.81;74.20;102128.88;6268659;22;20050;-56
2022/06/03 01:25:16;;;;;;;4.45;3.22;;;;;;;13.77;74.16;102125.47;6268639;22;20004;-57
2022/06/03 01:28:03;;;;;;;4.88;3.20;;;;;;;13.76;73.97;102129.00;6268844;22;20011;-54
2022/06/03 01:30:31;;;;;;;4.40;3.03;;;;;;;13.74;74.29;102114.06;6269693;22;20000;-57
2022/06/03 01:33:07;;;;;;;3.60;2.92;;;;;;;13.72;74.37;102115.88;6268338;22;20499;-57
2022/06/03 01:35:51;;;;;;;9.45;3.30;;;;;;;13.68;74.09;102108.94;6241579;22;20058;-56
2022/06/03 01:38:40;;;;;;;10.75;3.33;;;;;;;13.57;74.34;102111.88;6266224;22;20077;-57
2022/06/03 01:41:19;;;;;;;8.65;3.38;;;;;;;13.61;74.20;102106.44;6268402;22;20011;-57
2022/06/03 01:43:56;;;;;;;9.23;3.50;;;;;;;13.59;73.84;102107.41;6241172;22;20427;-57
2022/06/03 01:46:26;;;;;;;7.55;3.00;;;;;;;13.71;73.54;102104.44;6268958;22;20094;-58
2022/06/03 01:48:58;;;;;;;3.85;3.35;;;;;;;13.63;73.94;102104.63;6267738;22;20004;-58
2022/06/03 01:51:54;;;;;;;4.70;3.20;;;;;;;13.55;74.38;102100.47;6268722;22;20015;-58
2022/06/03 01:54:35;;;;;;;3.78;3.35;;;;;;;13.41;74.79;102106.94;6240344;22;20462;-57
2022/06/03 01:57:12;;;;;;;3.85;2.85;;;;;;;13.54;73.97;102102.22;6268858;22;20008;-58
2022/06/03 01:59:49;;;;;;;3.80;3.15;;;;;;;13.46;74.16;102101.53;6267730;22;20011;-57
2022/06/03 02:02:46;;;;;;;4.60;3.40;;;;;;;13.39;74.51;102100.81;6268600;22;20094;-57
2022/06/03 02:05:21;;;;;;;5.93;3.40;;;;;;;13.34;74.90;102100.91;6240922;22;20010;-58
2022/06/03 02:08:34;;;;;;;3.33;3.03;;;;;;;13.39;74.31;102093.75;6240832;22;20004;-56
2022/06/03 02:11:25;;;;;;;5.22;2.90;;;;;;;13.44;74.26;102096.28;6174609;22;20015;-54
2022/06/03 02:13:57;;;;;;;3.95;3.20;;;;;;;13.50;73.74;102096.16;6267944;22;20007;-56
2022/06/03 02:16:47;;;;;;;4.25;3.10;;;;;;;13.42;73.96;102087.50;6268828;22;20003;-57
2022/06/03 02:19:33;;;;;;;3.97;3.10;;;;;;;13.44;73.83;102092.75;6267297;22;20439;-57
2022/06/03 02:22:13;;;;;;;6.85;3.13;;;;;;;13.42;73.68;102090.16;6269117;22;20035;-56
2022/06/03 02:25:01;;;;;;;3.65;3.13;;;;;;;13.38;74.30;102086.72;6267522;22;20423;-55
2022/06/03 02:27:54;;;;;;;5.43;3.05;;;;;;;13.39;73.37;102087.56;6269066;22;20015;-57
2022/06/03 02:30:33;;;;;;;6.60;3.28;;;;;;;13.42;73.60;102089.28;6240298;22;20145;-56
2022/06/03 02:33:17;;;;;;;8.63;3.10;;;;;;;13.50;73.23;102092.63;6241388;22;19996;-58
2022/06/03 02:36:01;;;;;;;3.80;2.80;;;;;;;13.48;73.71;102084.69;6241290;22;20007;-58
2022/06/03 02:38:39;;;;;;;3.70;3.28;;;;;;;13.50;73.39;102080.28;6266447;22;20313;-58
2022/06/03 02:41:30;;;;;;;5.80;3.20;;;;;;;13.44;74.00;102079.50;6268015;22;20012;-57
2022/06/03 02:44:32;;;;;;;5.45;3.50;;;;;;;13.42;73.56;102086.66;6240493;22;20000;-57
2022/06/03 02:47:18;;;;;;;5.00;2.97;;;;;;;13.43;74.02;102080.44;6268405;22;20023;-57
2022/06/03 02:50:05;;;;;;;5.15;3.17;;;;;;;13.38;73.65;102075.25;6267457;22;20031;-57
2022/06/03 02:53:08;;;;;;;6.50;2.90;;;;;;;13.32;73.87;102071.00;6267976;22;20079;-57
2022/06/03 02:55:39;;;;;;;5.47;3.28;;;;;;;13.28;73.85;102074.63;6240356;22;20313;-58
2022/06/03 02:58:17;;;;;;;6.53;3.05;;;;;;;13.24;73.97;102070.31;6268212;22;20011;-62
2022/06/03 03:00:57;;;;;;;8.95;3.78;;;;;;;13.33;73.43;102064.78;6267171;22;20012;-57
2022/06/03 03:03:48;;;;;;;7.25;3.22;;;;;;;13.28;73.55;102064.06;6240971;22;20000;-61
2022/06/03 03:06:58;;;;;;;11.15;3.53;;;;;;;13.27;73.52;102063.16;6267612;22;20323;-55
2022/06/03 03:09:49;;;;;;;5.32;3.00;;;;;;;13.22;73.42;102059.75;6220289;22;20014;-56
2022/06/03 03:12:14;;;;;;;4.10;2.88;;;;;;;13.28;73.24;102058.75;6241605;22;20331;-57
2022/06/03 03:15:01;;;;;;;5.78;3.40;;;;;;;13.13;74.33;102060.00;6268323;22;20008;-55
2022/06/03 03:17:46;;;;;;;5.13;3.17;;;;;;;13.17;73.88;102050.19;6267229;22;20038;-58
2022/06/03 03:20:30;;;;;;;4.88;3.08;;;;;;;13.16;73.53;102048.47;6240969;22;20455;-57
2022/06/03 03:23:22;;;;;;;4.40;3.28;;;;;;;13.00;74.30;102047.06;6267862;22;20000;-58
2022/06/03 03:26:02;;;;;;;3.50;3.20;;;;;;;12.96;73.96;102041.91;6241593;22;20063;-57
2022/06/03 03:28:43;;;;;;;6.70;3.53;;;;;;;13.01;74.22;102040.03;6240232;22;20007;-56
2022/06/03 03:31:30;;;;;;;5.05;3.40;;;;;;;13.01;73.79;102038.22;6267840;22;20007;-57
2022/06/03 03:34:13;;;;;;;5.70;3.15;;;;;;;13.05;73.69;102035.50;6267229;22;20431;-58
2022/06/03 03:37:17;;;;;;;4.03;3.22;;;;;;;12.93;74.51;102037.56;6240156;22;20007;-58
2022/06/03 03:39:51;;;;;;;5.82;3.60;;;;;;;12.89;74.27;102044.69;6268561;22;20010;-58
2022/06/03 03:42:23;;;;;;;4.00;3.45;;;;;;;12.87;74.33;102043.00;6270697;22;20003;-58
2022/06/03 03:45:12;;;;;;;5.50;3.75;;;;;;;12.81;74.70;102049.31;6271171;22;20452;-57
2022/06/03 03:48:21;;;;;;;6.90;3.53;;;;;;;12.65;75.36;102038.22;6270450;22;20014;-57
2022/06/03 03:51:20;;;;;;;5.82;3.75;;;;;;;12.69;75.33;102036.38;6244717;22;20027;-58
2022/06/03 03:54:13;;;;;;;5.97;3.70;;;;;;;12.68;75.12;102047.84;6270539;22;20013;-58
2022/06/03 03:56:53;;;;;;;5.82;3.30;;;;;;;12.77;74.70;102029.97;6271150;22;20015;-57
2022/06/03 03:59:39;;;;;;;5.90;4.28;;;;;;;12.66;75.73;102034.66;6270153;22;20008;-58
2022/06/03 04:02:40;;;;;;;8.63;4.07;;;;;;;12.64;75.62;102037.34;6270991;22;20035;-58
2022/06/03 04:05:21;;;;;;;7.50;3.80;;;;;;;12.63;75.24;102034.75;6270321;22;20440;-56
2022/06/03 04:08:07;;;;;;;5.55;3.90;;;;;;;12.56;75.49;102031.38;6270335;22;20455;-58
2022/06/03 04:10:51;;;;;;;7.93;3.85;;;;;;;12.45;75.61;102030.75;6270395;22;20003;-59
2022/06/03 04:13:54;;;;;;;5.20;4.03;;;;;;;12.33;76.31;102030.13;6270779;22;20004;-58
2022/06/03 04:16:30;;;;;;;6.20;3.85;;;;;;;12.53;75.44;102028.81;6271113;22;20066;-58
2022/06/03 04:19:13;;;;;;;5.15;3.90;;;;;;;12.57;75.44;102022.53;6269540;22;20563;-59
2022/06/03 04:22:12;;;;;;;6.30;3.53;;;;;;;12.45;75.46;102006.94;6244603;22;20368;-60
2022/06/03 04:24:48;;;;;;;6.03;4.00;;;;;;;12.48;75.21;102010.41;6242833;22;20077;-59
2022/06/03 04:27:13;;;;;;;6.07;3.67;;;;;;;12.44;75.17;102010.50;6243966;22;20003;-57
2022/06/03 04:30:04;;;;;;;5.38;3.80;;;;;;;12.64;74.46;102010.91;6270486;22;20058;-57
2022/06/03 04:33:06;;;;;;;6.65;4.00;;;;;;;12.70;74.34;102011.69;6271257;22;20004;-61
2022/06/03 04:35:56;;;;;;;6.43;3.80;;;;;;;12.76;74.23;102011.50;6270793;22;20087;-62
2022/06/03 04:38:43;;;;;;;6.28;3.75;;;;;;;12.83;74.25;102021.06;6269088;22;20050;-56
2022/06/03 04:41:27;;;;;;;5.40;3.60;;;;;;;12.99;73.68;102016.25;6270166;22;20039;-58
2022/06/03 04:44:31;;;;;;;5.25;3.50;;;;;;;13.09;73.40;102011.56;6269824;22;20000;-59
2022/06/03 04:46:56;;;;;;;5.85;3.78;;;;;;;13.11;73.59;102017.72;6234756;22;20007;-59
2022/06/03 04:49:51;;;;;;;4.28;3.67;;;;;;;13.12;73.62;102015.91;6269111;22;20010;-56
2022/06/03 04:52:38;;;;;;;4.70;3.70;;;;;;;12.96;74.07;102020.72;6269699;22;20383;-63
2022/06/03 04:55:37;;;;;;;5.85;4.00;;;;;;;13.04;73.50;102018.78;6267670;22;20030;-59
2022/06/03 04:58:40;;;;;;;4.40;3.75;;;;;;;13.07;73.97;102020.47;6269220;22;20090;-58
2022/06/03 05:01:52;;;;;;;6.50;5.03;;;;;;;13.07;73.70;102015.19;6267745;22;20347;-57
2022/06/03 05:04:36;;;;;;;10.70;4.30;;;;;;;13.30;73.08;102014.56;6268613;22;20000;-58
2022/06/03 05:07:39;;;;;;;6.70;4.45;;;;;;;13.40;72.60;102005.47;6267142;22;20027;-58
2022/06/03 05:10:42;;;;;;;5.10;4.18;;;;;;;13.37;72.64;102005.53;6268879;22;20012;-57
2022/06/03 05:13:29;;;;;;;4.78;4.03;;;;;;;13.31;72.92;102012.78;6267727;22;20058;-59
2022/06/03 05:16:19;;;;;;;5.57;4.22;;;;;;;13.36;73.10;102008.22;6268922;22;20514;-57
2022/06/03 05:18:50;;;;;;;6.35;3.65;;;;;;;13.75;71.64;102017.78;6267390;22;20470;-57
2022/06/03 05:21:37;;;;;;;6.93;4.00;;;;;;;13.88;71.28;102008.59;6269071;22;20084;-58
2022/06/03 05:24:33;;;;;;;5.07;3.67;;;;;;;13.99;70.97;102013.56;6266583;22;20069;-62
2022/06/03 05:27:17;;;;;;;6.75;4.97;;;;;;;13.97;71.03;102010.09;6269251;22;20489;-62
2022/06/03 05:30:22;;;;;;;3.92;3.58;;;;;;;14.03;70.74;102009.06;6240459;22;20011;-59
2022/06/03 05:32:57;;;;;;;6.63;3.95;;;;;;;14.02;70.72;102005.53;6241770;22;20000;-56
2022/06/03 05:35:25;;;;;;;6.05;4.03;;;;;;;13.94;70.93;102001.38;6240364;22;20256;-59
2022/06/03 05:38:24;;;;;;;7.80;4.25;;;;;;;13.94;71.05;101999.59;6266827;22;20134;-61
2022/06/03 05:44:20;;;;;;;5.80;3.60;;;;;;;14.31;69.81;102002.91;6266286;22;20067;-57
2022/06/03 05:47:08;;;;;;;4.22;3.53;;;;;;;14.49;69.20;101997.94;6238214;22;20420;-56
2022/06/03 05:50:11;;;;;;;6.60;3.92;;;;;;;14.50;69.50;102002.31;6268771;22;20069;-60
2022/06/03 05:52:55;;;;;;;6.03;4.20;;;;;;;14.55;69.41;102010.13;6267679;22;20034;-58
2022/06/03 05:55:27;;;;;;;5.38;3.83;;;;;;;14.32;69.79;102004.66;6267612;22;20008;-58
2022/06/03 05:57:55;;;;;;;8.75;4.05;;;;;;;14.70;68.80;102011.44;6267464;22;20094;-60
2022/06/03 06:00:34;;;;;;;6.57;4.32;;;;;;;14.81;68.79;102011.97;6267306;22;20436;-59
2022/06/03 06:03:20;;;;;;;5.40;3.80;;;;;;;14.93;68.27;102009.84;6240926;22;20004;-58
2022/06/03 06:06:07;;;;;;;4.70;3.55;;;;;;;14.98;68.38;102007.88;6267560;22;20451;-60
2022/06/03 06:08:45;;;;;;;6.32;3.75;;;;;;;15.09;67.98;102013.72;6240031;22;20183;-62
2022/06/03 06:11:45;;;;;;;9.00;4.07;;;;;;;15.24;67.52;102014.09;6239345;22;20007;-61
2022/06/03 06:14:16;;;;;;;4.25;3.85;;;;;;;15.35;67.34;102005.75;6267684;22;20027;-60
2022/06/03 06:16:42;;;;;;;5.20;4.22;;;;;;;15.41;67.29;102006.38;6239043;22;20053;-61
2022/06/03 06:19:36;;;;;;;5.05;4.00;;;;;;;15.43;67.07;102013.44;6238777;22;20061;-61
2022/06/03 06:22:24;;;;;;;4.32;3.92;;;;;;;15.33;67.72;102015.56;6267001;22;20569;-62
2022/06/03 06:25:00;;;;;;;8.73;4.20;;;;;;;15.56;67.27;102013.88;6268046;22;20462;-61
2022/06/03 06:27:47;;;;;;;6.53;3.65;;;;;;;15.58;67.45;102020.84;6267418;22;19999;-60
2022/06/03 06:30:34;;;;;;;7.28;4.18;;;;;;;15.59;67.33;102022.59;6267503;22;20447;-58
2022/06/03 06:32:59;;;;;;;5.53;4.00;;;;;;;15.64;67.04;102015.31;6266487;22;20004;-60
2022/06/03 06:35:56;;;;;;;7.57;4.40;;;;;;;15.78;66.73;102019.25;6266633;22;20014;-60
2022/06/03 06:38:35;;;;;;;7.53;3.97;;;;;;;16.07;65.74;102025.28;6238687;22;20012;-60
2022/06/03 06:41:19;;;;;;;5.95;3.20;;;;;;;16.11;65.89;102029.59;6240743;22;20004;-59
2022/06/03 06:43:57;;;;;;;4.65;4.10;;;;;;;16.36;65.08;102025.97;6268428;22;20053;-60
2022/06/03 06:46:48;;;;;;;4.20;3.65;;;;;;;16.26;65.25;102019.28;6239858;22;20455;-59
2022/06/03 06:49:20;;;;;;;5.80;4.53;;;;;;;16.35;64.42;102016.25;6254669;22;20014;-59
2022/06/03 06:52:07;;;;;;;5.93;3.67;;;;;;;16.70;63.48;102014.88;6266189;22;20000;-60
2022/06/03 06:54:53;;;;;;;4.40;3.75;;;;;;;16.89;62.95;102010.50;6265419;22;20450;-59
2022/06/03 06:57:25;;;;;;;4.70;3.55;;;;;;;16.90;62.81;102003.41;6266359;22;20054;-59
2022/06/03 06:59:53;;;;;;;4.90;3.33;;;;;;;17.04;61.71;102008.16;6237842;22;20468;-61
2022/06/03 07:02:25;;;;;;;7.90;3.50;;;;;;;17.24;61.19;101995.78;6267217;22;20307;-60
2022/06/03 07:04:59;;;;;;;4.65;3.70;;;;;;;17.36;61.40;101999.69;6240009;22;19999;-61
2022/06/03 07:07:37;;;;;;;2.90;2.55;;;;;;;17.50;60.88;101991.09;6238926;22;19999;-61
2022/06/03 07:10:08;;;;;;;5.45;3.80;;;;;;;17.44;61.35;101997.56;6267732;22;20038;-59
2022/06/03 07:12:59;;;;;;;9.02;4.53;;;;;;;17.18;61.47;101986.25;6239325;22;20002;-60
2022/06/03 07:15:27;;;;;;;9.15;4.00;;;;;;;17.28;62.06;101986.75;6266448;22;20007;-61
2022/06/03 07:21:16;;;;;;;7.13;3.70;;;;;;;17.48;60.09;101992.94;6096216;23;20017;-60
2022/06/03 07:23:41;;;;;;;9.23;4.00;;;;;;;17.65;60.12;102000.19;6214643;22;20004;-62
2022/06/03 07:26:18;;;;;;;7.35;3.90;;;;;;;17.74;59.27;101999.78;6266313;22;20015;-60
2022/06/03 07:28:53;;;;;;;6.57;3.92;;;;;;;17.84;59.26;101983.34;6265762;22;20006;-60
2022/06/03 07:31:30;;;;;;;7.50;3.45;;;;;;;18.02;58.80;101989.63;6239927;22;20003;-60
2022/06/03 07:34:01;;;;;;;5.38;3.13;;;;;;;18.18;58.27;101990.66;6239897;22;20031;-60
2022/06/03 07:36:48;;;;;;;7.03;3.95;;;;;;;18.25;58.61;101990.38;6266638;22;20000;-60
2022/06/03 07:39:38;;;;;;;3.85;3.30;;;;;;;18.05;60.59;101992.16;6266120;22;20042;-60
2022/06/03 07:42:33;;;;;;;7.10;4.05;;;;;;;18.24;59.30;101991.31;6267754;22;20332;-60
2022/06/03 07:45:20;;;;;;;9.45;3.75;;;;;;;18.38;58.57;101986.16;6238775;22;20278;-59
2022/06/03 07:47:45;;;;;;;7.63;4.10;;;;;;;18.40;58.23;101986.97;6268177;22;20004;-60
2022/06/03 07:50:15;;;;;;;5.97;4.03;;;;;;;18.32;58.56;101989.13;6264048;22;20379;-61
2022/06/03 07:53:10;;;;;;;5.22;3.80;;;;;;;18.50;58.49;101994.50;6240859;22;20079;-63
2022/06/03 07:55:35;;;;;;;4.63;3.90;;;;;;;18.60;58.40;101994.91;6235521;22;20004;-60
2022/06/03 07:58:06;;;;;;;6.90;3.95;;;;;;;18.43;58.45;101988.59;6267231;22;20038;-61
2022/06/03 08:00:38;;;;;;;5.65;3.60;;;;;;;18.58;58.87;101983.44;6267167;22;19996;-61
2022/06/03 08:03:16;;;;;;;6.05;3.70;;;;;;;18.74;58.45;101988.88;6238972;22;20075;-61
2022/06/03 08:05:46;;;;;;;6.03;3.85;;;;;;;18.76;57.89;101987.88;6238034;22;20003;-64
2022/06/03 08:11:05;;;;;;;6.93;4.07;;;;;;;18.53;59.00;101983.66;6245183;22;20019;-61
2022/06/03 08:13:39;;;;;;;7.90;3.45;;;;;;;18.71;57.56;101973.00;6266688;22;20428;-60
2022/06/03 08:16:08;;;;;;;5.82;3.90;;;;;;;18.72;57.88;101975.59;6266475;22;20057;-62
2022/06/03 08:18:40;;;;;;;8.00;3.92;;;;;;;18.64;58.24;101970.66;6267680;22;20007;-61
2022/06/03 08:21:09;;;;;;;5.75;3.67;;;;;;;18.65;58.06;101964.38;6240953;22;20007;-63
2022/06/03 08:23:34;;;;;;;;;;;;;;;18.81;58.31;101955.56;6267209;22;20320;-61
2022/06/03 08:26:04;;;;;;;8.32;3.88;;;;;;;18.53;59.25;101963.19;6215317;22;19907;-60
2022/06/03 08:28:32;;;;;;;4.82;3.50;;;;;;;19.06;58.18;101957.84;6239918;22;20008;-60
2022/06/03 08:31:00;;;;;;;5.50;4.03;;;;;;;19.07;57.61;101956.03;6269590;22;20000;-60
2022/06/03 08:33:48;;;;;;;9.45;4.03;;;;;;;19.02;58.02;101958.09;6268863;22;20022;-62
2022/06/03 08:36:17;;;;;;;4.10;3.65;;;;;;;18.97;57.17;101952.13;6267530;22;20014;-62
2022/06/03 08:38:48;;;;;;;6.20;3.85;;;;;;;19.21;56.91;101938.47;6242260;22;20010;-61
2022/06/03 08:41:30;;;;;;;11.07;4.25;;;;;;;19.24;55.94;101939.16;6241556;22;20327;-61
2022/06/03 08:44:05;;;;;;;5.60;3.45;;;;;;;19.38;55.31;101941.09;6268623;22;19999;-62
2022/06/03 08:46:43;;;;;;;6.20;3.60;;;;;;;19.20;55.52;101934.91;6269731;22;20408;-60
2022/06/03 08:49:12;;;;;;;6.57;3.30;;;;;;;19.29;55.23;101936.22;6268531;22;20491;-60
2022/06/03 08:51:43;;;;;;;;;;;;;;;19.52;55.02;101934.13;6241386;22;20007;-61
2022/06/03 08:54:14;;;;;;;5.78;3.33;;;;;;;19.79;55.23;101929.06;6241140;22;19907;-60
2022/06/03 08:56:42;;;;;;;5.65;3.65;;;;;;;19.88;54.42;101927.69;6268205;22;20004;-61
2022/06/03 08:59:22;;;;;;;6.43;3.08;;;;;;;19.92;54.62;101926.56;6268029;22;20010;-60
2022/06/03 09:01:56;;;;;;;5.45;3.22;;;;;;;20.16;54.40;101941.31;6241000;22;20015;-60
2022/06/03 09:04:22;;;;;;;6.03;3.70;;;;;;;20.36;54.01;101939.31;6268511;22;20014;-61
2022/06/03 09:07:25;;;;;;;5.70;3.35;;;;;;;20.35;51.04;101937.59;6268736;22;20416;-61
2022/06/03 09:10:07;;;;;;;5.05;2.90;;;;;;;20.56;54.07;101928.28;6268107;22;20003;-62
2022/06/03 09:12:32;;;;;;;6.72;2.95;;;;;;;20.81;53.37;101932.19;6268728;22;20097;-60
2022/06/03 09:15:05;;;;;;;4.75;2.90;;;;;;;20.76;50.48;101920.00;6269341;22;20073;-61
2022/06/03 09:18:00;;;;;;;4.85;2.40;;;;;;;20.84;50.36;101936.50;6241459;22;20012;-61
2022/06/03 09:20:33;;;;;;;7.40;3.63;;;;;;;20.64;52.94;101935.88;6252232;22;20008;-60
2022/06/03 09:23:02;;;;;;;6.55;3.33;;;;;;;20.79;52.66;101938.56;6240456;22;20066;-60
2022/06/03 09:25:31;;;;;;;5.97;3.33;;;;;;;20.94;52.50;101935.00;6269278;22;20049;-61
2022/06/03 09:27:56;;;;;;;4.72;3.33;;;;;;;21.05;52.01;101931.69;6268998;22;20046;-60
2022/06/03 09:30:31;;;;;;;3.35;3.05;;;;;;;21.10;52.32;101917.97;6241293;22;20000;-60
2022/06/03 09:32:57;;;;;;;5.63;3.30;;;;;;;20.96;50.63;101934.94;6241659;22;20383;-60
2022/06/03 09:35:24;;;;;;;5.32;3.47;;;;;;;20.93;51.89;101937.78;6268385;22;20010;-61
2022/06/03 09:37:55;;;;;;;3.58;2.97;;;;;;;20.70;51.19;101948.91;6267646;22;20008;-61
2022/06/03 09:40:23;;;;;;;10.63;3.22;;;;;;;20.68;52.02;101936.56;6241636;22;20004;-61
2022/06/03 09:42:55;;;;;;;4.30;3.37;;;;;;;20.82;51.56;101933.91;6241083;22;20002;-60
2022/06/03 09:45:23;;;;;;;6.97;3.00;;;;;;;20.68;51.13;101937.41;6268035;22;20447;-61
2022/06/03 09:47:49;;;;;;;4.93;2.85;;;;;;;21.16;51.00;101941.72;6269483;22;20000;-61
2022/06/03 09:50:16;;;;;;;4.10;2.60;;;;;;;21.49;50.49;101936.19;6240559;22;20026;-60
2022/06/03 09:52:41;;;;;;;3.70;2.85;;;;;;;21.74;50.31;101935.47;6240826;22;20000;-60
2022/06/03 09:55:23;;;;;;;5.13;2.60;;;;;;;21.34;49.38;101944.22;6268788;22;20053;-62
2022/06/03 09:57:48;;;;;;;4.57;2.38;;;;;;;21.78;49.31;101934.34;6242220;22;20007;-61
2022/06/03 10:00:24;;;;;;;4.22;2.85;;;;;;;21.61;48.34;101935.38;6267913;22;20305;-61
2022/06/03 10:02:50;;;;;;;6.38;2.47;;;;;;;21.49;48.99;101928.16;6242326;22;20550;-60
2022/06/03 10:05:17;;;;;;;4.65;2.10;;;;;;;21.92;48.60;101933.47;6240340;22;20079;-60
2022/06/03 10:07:43;;;;;;;4.07;2.47;;;;;;;22.02;48.35;101928.34;6267735;22;20004;-61
2022/06/03 10:12:56;;;;;;;3.38;2.38;;;;;;;22.07;48.03;101931.56;6244689;22;20061;-61
2022/06/03 10:15:40;;;;;;;3.72;2.15;;;;;;;22.10;48.31;101925.16;6268335;22;20071;-61
2022/06/03 10:18:44;;;;;;;2.55;1.98;;;;;;;22.39;47.05;101934.94;6241706;22;20424;-62
2022/06/03 10:21:10;;;;;;;5.30;2.50;;;;;;;22.38;47.38;101920.63;6266179;22;20058;-62
2022/06/03 10:23:44;;;;;;;3.00;2.28;;;;;;;22.44;47.51;101917.53;6267309;22;20003;-61
2022/06/03 10:26:18;;;;;;;3.15;2.10;;;;;;;22.52;46.99;101919.72;6267948;22;19996;-60
2022/06/03 10:28:43;;;;;;;5.38;2.30;;;;;;;22.81;46.96;101924.03;6268736;22;20017;-62
2022/06/03 10:31:15;;;;;;;2.45;1.75;;;;;;;23.03;45.66;101917.19;6266375;22;20335;-59
2022/06/03 10:33:54;;;;;;;2.33;2.08;;;;;;;22.96;44.60;101906.88;6268018;22;20004;-61
2022/06/03 10:36:23;;;;;;;3.83;1.75;;;;;;;22.85;44.60;101909.47;6266054;22;20033;-60
2022/06/03 10:38:48;;;;;;;2.25;2.08;;;;;;;22.82;45.45;101912.34;6267324;22;20038;-60
2022/06/03 10:41:14;;;;;;;3.55;2.05;;;;;;;23.21;43.77;101909.66;6267521;22;20003;-60
2022/06/03 10:43:41;;;;;;;3.83;2.10;;;;;;;23.09;45.16;101908.69;6265732;22;20010;-61
2022/06/03 10:46:13;;;;;;;2.83;1.80;;;;;;;23.45;44.68;101901.66;6266340;22;20008;-61
2022/06/03 10:48:39;;;;;;;5.43;1.95;;;;;;;23.69;44.94;101902.69;6238279;22;20003;-60
2022/06/03 11:02:43;;;;;;;7.28;2.20;;;;;;;23.28;44.06;101899.31;6267118;22;20061;-57
2022/06/03 11:05:10;;;;;;;6.03;2.22;;;;;;;23.51;44.45;101894.97;6240819;22;19988;-59
2022/06/03 11:07:36;;;;;;;2.35;1.92;;;;;;;23.34;44.63;101891.69;6265346;22;20091;-61
2022/06/03 11:10:15;;;;;;;1.77;1.65;;;;;;;23.99;43.50;101882.56;6268062;22;20019;-60
2022/06/03 11:12:42;;;;;;;3.60;1.90;;;;;;;24.04;44.17;101882.19;6267510;22;20003;-60
2022/06/03 11:15:31;;;;;;;6.85;2.13;;;;;;;24.17;43.21;101872.25;6239377;22;20008;-60
2022/06/03 11:18:00;;;;;;;4.22;2.25;;;;;;;24.29;42.04;101869.59;6266574;22;20510;-59
2022/06/03 11:20:39;;;;;;;2.17;1.75;;;;;;;24.03;42.05;101877.78;6239096;22;20050;-60
2022/06/03 11:23:07;;;;;;;5.85;1.70;;;;;;;24.22;43.94;101864.69;6265590;22;20034;-60
2022/06/03 11:25:36;;;;;;;3.45;1.95;;;;;;;24.23;43.29;101869.09;6266867;22;20091;-60
2022/06/03 11:28:15;;;;;;;2.17;2.00;;;;;;;24.46;42.59;101863.78;6267079;22;20484;-61
2022/06/03 11:30:46;;;;;;;2.20;1.70;;;;;;;24.98;41.25;101867.91;6267159;22;20008;-58
2022/06/03 11:33:24;;;;;;;4.88;1.75;;;;;;;25.08;40.68;101868.03;6267627;22;20120;-58
2022/06/03 11:36:04;;;;;;;3.22;1.58;;;;;;;25.30;40.99;101868.97;6267050;22;20004;-64
2022/06/03 11:38:36;;;;;;;3.22;1.77;;;;;;;25.56;40.78;101866.00;6267921;22;20008;-61
2022/06/03 11:41:08;;;;;;;1.73;1.63;;;;;;;25.76;40.05;101867.06;6239715;22;20426;-62
2022/06/03 11:43:46;;;;;;;1.80;1.60;;;;;;;25.41;37.87;101857.34;6240787;22;20078;-60
2022/06/03 11:46:16;;;;;;;1.60;1.50;;;;;;;25.36;38.60;101863.09;6240242;22;20007;-61
2022/06/03 11:48:43;;;;;;;5.88;1.80;;;;;;;25.58;38.21;101864.03;6268149;22;20003;-60
2022/06/03 11:51:09;;;;;;;4.35;1.70;;;;;;;25.44;38.49;101870.56;6264121;22;20080;-60
2022/06/03 11:53:39;;;;;;;2.88;1.83;;;;;;;25.07;40.72;101874.41;6266536;22;20038;-60
2022/06/03 11:56:09;;;;;;;3.33;1.60;;;;;;;25.61;39.03;101877.28;6265766;22;20010;-61
2022/06/03 11:58:49;;;;;;;1.95;1.58;;;;;;;25.79;41.60;101871.38;6267469;22;20135;-61
2022/06/03 12:01:40;;;;;;;5.78;1.50;;;;;;;26.24;38.62;101871.19;6237383;22;20000;-59
2022/06/03 12:04:33;;;;;;;2.58;1.27;;;;;;;26.39;37.43;101868.19;6221321;22;20062;-61
2022/06/03 12:07:23;;;;;;;3.00;1.38;;;;;;;26.41;35.21;101868.91;6240005;22;20375;-61
2022/06/03 12:09:57;;;;;;;2.78;1.23;;;;;;;26.24;36.12;101868.47;6269767;22;20723;-61
2022/06/03 12:15:33;;;;;;;2.70;1.33;;;;;;;27.05;34.23;101865.28;6269695;22;20103;-61
2022/06/03 12:18:09;;;;;;;4.78;1.70;;;;;;;27.21;34.00;101864.78;6241454;22;20004;-61
2022/06/03 12:20:43;;;;;;;5.18;1.60;;;;;;;27.04;35.56;101871.69;6270158;22;20007;-61
2022/06/03 12:23:12;;;;;;;8.90;1.95;;;;;;;26.88;33.97;101867.63;6268332;22;20070;-61
2022/06/03 12:25:40;;;;;;;3.53;1.63;;;;;;;27.66;32.08;101862.63;6269422;22;20003;-62
2022/06/03 12:28:13;;;;;;;1.52;1.42;;;;;;;28.12;33.68;101865.63;6267057;22;20015;-61
2022/06/03 12:30:53;;;;;;;7.22;1.75;;;;;;;28.61;33.74;101864.69;6268648;22;20011;-60
2022/06/03 12:33:26;;;;;;;2.58;1.25;;;;;;;28.84;34.10;101865.19;6241344;22;20024;-61
2022/06/03 12:36:04;;;;;;;3.15;1.30;;;;;;;28.63;33.77;101863.53;6269069;22;20018;-60
2022/06/03 12:38:40;;;;;;;1.67;1.08;;;;;;;28.64;32.19;101864.41;6242106;22;20010;-61
2022/06/03 12:41:05;;;;;;;2.75;1.65;;;;;;;28.09;33.34;101866.78;6269541;22;20443;-62
2022/06/03 12:43:53;;;;;;;1.27;1.17;;;;;;;28.20;32.55;101865.75;6267778;22;20000;-61
2022/06/03 12:46:43;;;;;;;1.83;1.13;;;;;;;28.69;31.85;101864.84;6268989;22;20011;-60
2022/06/03 12:49:43;;;;;;;1.88;1.33;;;;;;;28.68;31.79;101863.09;6240855;22;20014;-61